Bookmark and Share
Track history (hours):
 

Wes Sellars

More information available from US FCC via Universal Licensing System and Coast Guard Vessel Documentation Center.

Last reported at 2014-Apr-17 11:30 UTC. Time now 2014-Apr-19 02:11 UTC.
Position N 29°56' W 090°20'.

Length 27 m.

Type: Towing. MMSI: 367503760.

NotesDate/timePositionNaut miles runAvg speedWind from/ knotsBaromVisibWave heightAir tempDewpointWater temp
2014-Apr-17 11:30N 29°56' W 090°20'0 0.0
2014-Apr-17 10:32N 29°56' W 090°20'0 0.0
2014-Apr-17 09:30N 29°56' W 090°20'0 0.0
2014-Apr-17 08:33N 29°56' W 090°20'0 0.0
2014-Apr-17 07:33N 29°56' W 090°20'0 0.0
2014-Apr-17 04:32N 29°56' W 090°20'0 0.0
2014-Apr-17 03:32N 29°56' W 090°20'0 0.0
2014-Apr-17 02:33N 29°56' W 090°20'0 0.1
2014-Apr-17 00:33N 29°56' W 090°19'4 4.4
2014-Apr-16 23:33N 29°58' W 090°24'1 0.7
2014-Apr-16 22:33N 29°59' W 090°24'6 0.6
2014-Apr-16 12:33N 29°57' W 090°18'5 4.0
2014-Apr-16 11:15N 29°55' W 090°12'10 0.3
2014-Apr-15 06:34N 29°57' W 090°23'0 0.1
2014-Apr-15 05:34N 29°57' W 090°23'0 0.1
2014-Apr-15 03:34N 29°57' W 090°23'0 0.0
2014-Apr-15 02:33N 29°57' W 090°23'3 2.7
2014-Apr-15 01:33N 29°56' W 090°21'1 0.8
2014-Apr-15 00:32N 29°56' W 090°20'0 0.0
2014-Apr-14 23:33N 29°56' W 090°20'0 0.0
2014-Apr-14 10:33N 29°56' W 090°20'0 0.0
2014-Apr-14 09:32N 29°56' W 090°20'0 0.0
2014-Apr-14 08:33N 29°56' W 090°20'0 0.0
2014-Apr-14 07:33N 29°56' W 090°20'0 0.0
2014-Apr-14 06:33N 29°56' W 090°20'0 0.3
2014-Apr-14 05:32N 29°56' W 090°20'4 0.5
2014-Apr-13 21:19N 29°58' W 090°24'0 0.0
2014-Apr-13 20:25N 29°58' W 090°24'0 0.0
2014-Apr-13 19:33N 29°58' W 090°24'0 0.0
2014-Apr-13 18:30N 29°58' W 090°24'0 0.0
2014-Apr-13 17:32N 29°58' W 090°24'1 0.6
2014-Apr-13 16:33N 29°59' W 090°24'0 0.5
2014-Apr-13 15:33N 29°59' W 090°24'1 0.3
2014-Apr-13 12:17N 29°58' W 090°24'0 0.0
2014-Apr-13 11:30N 29°58' W 090°24'0 0.0
2014-Apr-13 10:25N 29°58' W 090°24'0 0.0
2014-Apr-13 09:32N 29°58' W 090°24'0 0.0
2014-Apr-13 08:26N 29°58' W 090°24'0 0.0
2014-Apr-13 06:30N 29°58' W 090°24'0 0.0
2014-Apr-13 05:33N 29°58' W 090°24'0 0.0
2014-Apr-13 04:33N 29°58' W 090°24'0 0.0
2014-Apr-13 03:26N 29°58' W 090°24'1 0.7
2014-Apr-13 02:33N 29°59' W 090°24'0 0.3
2014-Apr-13 01:33N 29°59' W 090°24'0 0.0
2014-Apr-13 00:33N 29°59' W 090°24'0 0.0
2014-Apr-12 23:33N 29°59' W 090°24'0 0.0
2014-Apr-12 22:33N 29°59' W 090°24'0 0.0
2014-Apr-12 21:33N 29°59' W 090°24'0 0.0
2014-Apr-12 20:33N 29°59' W 090°24'0 0.0
2014-Apr-12 19:33N 29°59' W 090°24'1 0.9
2014-Apr-12 18:33N 29°58' W 090°24'0 0.2
2014-Apr-12 17:33N 29°58' W 090°24'0 0.0
2014-Apr-12 16:33N 29°58' W 090°24'2 0.8
2014-Apr-12 14:24N 29°57' W 090°23'3 1.4
2014-Apr-12 12:31N 29°56' W 090°20'0 0.0
2014-Apr-12 11:33N 29°56' W 090°20'0 0.0
2014-Apr-12 10:30N 29°56' W 090°20'0 0.0
2014-Apr-12 09:22N 29°56' W 090°20'0 0.0
2014-Apr-12 08:21N 29°56' W 090°20'0 0.0
2014-Apr-12 07:26N 29°56' W 090°20'0 0.0
2014-Apr-12 06:33N 29°56' W 090°20'0 0.0
2014-Apr-12 05:31N 29°56' W 090°20'0 0.0
2014-Apr-12 04:32N 29°56' W 090°20'0 0.0
2014-Apr-12 03:33N 29°56' W 090°20'0 0.0
2014-Apr-12 02:33N 29°56' W 090°20'0 0.0
2014-Apr-12 01:32N 29°56' W 090°20'0 0.0
2014-Apr-12 00:32N 29°56' W 090°20'0 0.0
2014-Apr-11 23:33N 29°56' W 090°20'4 0.4
2014-Apr-11 12:24N 29°58' W 090°24'0 0.0
2014-Apr-11 11:33N 29°58' W 090°24'0 0.0
2014-Apr-11 10:33N 29°58' W 090°24'0 0.0
2014-Apr-11 09:33N 29°58' W 090°24'0 0.0
2014-Apr-11 08:33N 29°58' W 090°24'0 0.0
2014-Apr-11 07:33N 29°58' W 090°24'0 0.0
2014-Apr-11 06:33N 29°58' W 090°24'0 0.0
2014-Apr-11 05:33N 29°58' W 090°24'0 0.0
2014-Apr-11 04:33N 29°58' W 090°24'0 0.0
2014-Apr-11 03:33N 29°58' W 090°24'0 0.3
2014-Apr-11 02:33N 29°58' W 090°24'7 6.6
2014-Apr-11 01:33N 30°03' W 090°29'9 9.3
2014-Apr-11 00:33N 30°03' W 090°40'9 9.3
2014-Apr-10 23:33N 29°59' W 090°49'20 0.5
2014-Apr-09 10:29N 30°13' W 091°06'15 3.0
2014-Apr-09 05:33N 30°04' W 090°52'3 0.5
2014-Apr-09 00:32N 30°01' W 090°50'2 2.4
2014-Apr-08 23:30N 29°60' W 090°48'2 2.2
2014-Apr-08 22:33N 30°01' W 090°46'7 4.7
2014-Apr-08 21:05N 30°03' W 090°38'2 4.1
2014-Apr-08 20:33N 30°03' W 090°36'1 0.7
2014-Apr-08 19:33N 30°03' W 090°35'4 4.2
2014-Apr-08 18:32N 30°03' W 090°30'7 1.1
2014-Apr-08 12:13N 29°59' W 090°24'6 8.7
2014-Apr-08 11:33N 30°03' W 090°29'8 8.1
2014-Apr-08 10:33N 30°02' W 090°38'8 8.0
2014-Apr-08 09:33N 30°00' W 090°47'6 5.5
2014-Apr-08 08:33N 30°04' W 090°52'  

Dump ship's entire track history

sailing weather and tide predictions

Wes Sellars — WDF9302 — position and weather